Time;durP1;ratioP1;P1;durP2;ratioP2;P2;SDS_P1;SDS_P2;PMS_P1;PMS_P2;Temp;Humidity;BMP_temperature;BMP_pressure;BME280_temperature;BME280_humidity;BME280_pressure;Samples;Min_cycle;Max_cycle;Signal;HPM_P1;HPM_P2
2023/11/09 00:00:47;;;;;;;5.68;3.00;;;2.80;65.30;;;;;;5095298;28;20619;-74
2023/11/09 00:03:16;;;;;;;12.25;3.67;;;2.70;64.80;;;;;;5095616;28;20300;-74
2023/11/09 00:05:45;;;;;;;6.40;3.55;;;2.70;64.40;;;;;;5095338;28;20196;-73
2023/11/09 00:08:17;;;;;;;4.75;2.80;;;2.70;64.30;;;;;;5094807;28;20186;-73
2023/11/09 00:11:02;;;;;;;5.32;3.08;;;2.70;64.30;;;;;;5094848;28;20261;-74
2023/11/09 00:13:38;;;;;;;6.50;3.78;;;2.70;64.90;;;;;;5094790;28;20181;-73
2023/11/09 00:16:12;;;;;;;7.13;3.60;;;2.70;64.90;;;;;;5094664;28;20620;-73
2023/11/09 00:18:47;;;;;;;4.63;2.60;;;2.70;64.50;;;;;;5094892;28;20558;-74
2023/11/09 00:21:18;;;;;;;5.95;2.92;;;2.60;64.50;;;;;;5094485;28;20221;-74
2023/11/09 00:23:47;;;;;;;7.00;3.13;;;2.60;64.40;;;;;;5094684;28;20195;-74
2023/11/09 00:26:18;;;;;;;4.85;2.60;;;2.60;64.40;;;;;;5094750;28;20190;-73
2023/11/09 00:28:50;;;;;;;5.13;2.80;;;2.50;64.80;;;;;;5093889;28;20228;-74
2023/11/09 00:31:22;;;;;;;4.53;2.30;;;2.50;65.30;;;;;;5094850;28;20184;-74
2023/11/09 00:33:52;;;;;;;4.72;2.45;;;2.40;65.80;;;;;;5094861;28;20265;-74
2023/11/09 00:36:20;;;;;;;4.70;3.10;;;2.50;66.10;;;;;;5094260;28;20189;-73
2023/11/09 00:38:49;;;;;;;3.40;1.73;;;2.40;65.30;;;;;;5094817;28;20193;-73
2023/11/09 00:41:20;;;;;;;4.97;1.95;;;2.40;65.00;;;;;;5094431;28;20277;-73
2023/11/09 00:43:51;;;;;;;4.28;2.10;;;2.30;64.50;;;;;;5094175;28;20180;-73
2023/11/09 00:46:20;;;;;;;3.97;2.20;;;2.30;64.60;;;;;;5094063;28;20235;-74
2023/11/09 00:48:49;;;;;;;3.30;2.05;;;2.30;64.80;;;;;;5093948;28;20598;-73
2023/11/09 00:51:18;;;;;;;4.07;2.30;;;2.30;65.20;;;;;;5093847;28;20190;-74
2023/11/09 00:53:48;;;;;;;4.47;2.17;;;;;;;;;;5093962;28;20185;-74
2023/11/09 00:56:18;;;;;;;4.35;2.25;;;;;;;;;;5094613;28;20189;-74
2023/11/09 00:58:45;;;;;;;6.00;2.35;;;;;;;;;;5093881;28;20288;-74
2023/11/09 01:01:15;;;;;;;3.17;2.40;;;;;;;;;;5094251;28;20225;-74
2023/11/09 01:03:44;;;;;;;7.15;2.58;;;;;;;;;;5094526;28;20651;-73
2023/11/09 01:06:12;;;;;;;5.97;2.15;;;;;;;;;;5094267;28;20185;-73
2023/11/09 01:08:41;;;;;;;4.43;1.77;;;;;;;;;;5093826;28;20232;-73
2023/11/09 01:11:09;;;;;;;4.05;2.15;;;;;;;;;;5093676;28;20221;-73
2023/11/09 01:13:37;;;;;;;4.68;1.80;;;;;;;;;;5093715;28;20193;-74
2023/11/09 01:16:08;;;;;;;3.97;1.83;;;;;;;;;;5091948;28;20181;-74
2023/11/09 01:18:36;;;;;;;3.38;2.10;;;;;;;;;;5093099;28;20265;-74
2023/11/09 01:21:05;;;;;;;3.67;1.80;;;;;;;;;;5092385;28;20286;-74
2023/11/09 01:23:32;;;;;;;4.40;1.80;;;;;;;;;;5093416;28;20217;-74
2023/11/09 01:26:00;;;;;;;3.78;1.77;;;;;;;;;;5093616;28;20194;-74
2023/11/09 01:28:27;;;;;;;4.65;2.58;;;;;;;;;;5093654;28;20193;-74
2023/11/09 01:30:55;;;;;;;4.80;2.28;;;;;;;;;;5092480;28;20181;-75
2023/11/09 01:33:25;;;;;;;5.20;2.30;;;2.30;64.90;;;;;;5093996;28;20271;-73
2023/11/09 01:35:52;;;;;;;4.90;2.10;;;;;;;;;;5093415;28;20197;-73
2023/11/09 01:38:21;;;;;;;5.40;2.53;;;;;;;;;;5093349;28;20197;-73
2023/11/09 01:40:52;;;;;;;4.35;1.63;;;;;;;;;;5092716;28;20266;-74
2023/11/09 01:43:20;;;;;;;11.85;1.95;;;;;;;;;;5093426;28;20304;-74
2023/11/09 01:45:51;;;;;;;3.45;1.67;;;2.00;66.10;;;;;;5089518;28;20267;-73
2023/11/09 01:48:19;;;;;;;5.75;2.75;;;1.80;65.10;;;;;;5092967;28;20186;-73
2023/11/09 01:50:52;;;;;;;3.42;1.75;;;1.80;65.20;;;;;;5093514;28;20535;-73
2023/11/09 01:53:22;;;;;;;4.45;2.13;;;1.60;65.10;;;;;;5093042;28;20247;-73
2023/11/09 01:55:50;;;;;;;3.85;2.58;;;1.70;65.60;;;;;;5093420;28;20212;-73
2023/11/09 01:58:20;;;;;;;5.57;2.67;;;1.70;66.10;;;;;;5092894;28;20186;-73
2023/11/09 02:00:50;;;;;;;4.15;2.70;;;1.70;66.40;;;;;;5093072;28;20535;-75
2023/11/09 02:03:17;;;;;;;4.35;2.67;;;1.70;66.60;;;;;;5093391;28;20213;-73
2023/11/09 02:05:46;;;;;;;5.40;2.30;;;1.70;67.10;;;;;;5093617;28;20197;-73
2023/11/09 02:08:13;;;;;;;3.90;1.90;;;1.80;67.70;;;;;;5093073;28;20190;-73
2023/11/09 02:10:42;;;;;;;3.15;1.70;;;1.80;67.30;;;;;;5092870;28;20197;-74
2023/11/09 02:13:09;;;;;;;4.70;1.70;;;1.70;68.20;;;;;;5092981;28;20201;-74
2023/11/09 02:15:37;;;;;;;3.70;1.85;;;1.70;69.10;;;;;;5092971;28;20197;-74
2023/11/09 02:18:04;;;;;;;3.15;1.35;;;1.70;68.70;;;;;;5092585;28;20192;-73
2023/11/09 02:20:31;;;;;;;4.88;1.98;;;;;;;;;;5092665;28;20282;-73
2023/11/09 02:23:01;;;;;;;7.60;2.00;;;;;;;;;;5092694;28;20259;-73
2023/11/09 02:25:33;;;;;;;5.03;2.08;;;;;;;;;;5092892;28;20271;-73
2023/11/09 02:28:02;;;;;;;4.00;2.08;;;1.70;67.80;;;;;;5092838;28;20304;-73
2023/11/09 02:30:31;;;;;;;3.80;1.90;;;;;;;;;;5092707;28;20186;-73
2023/11/09 02:32:58;;;;;;;3.80;2.13;;;;;;;;;;5091776;28;20190;-73
2023/11/09 02:35:28;;;;;;;4.63;1.90;;;1.70;65.30;;;;;;5092381;28;20189;-73
2023/11/09 02:37:57;;;;;;;4.10;2.10;;;1.60;64.90;;;;;;5093333;28;20267;-73
2023/11/09 02:40:25;;;;;;;4.43;1.92;;;1.60;65.40;;;;;;5092194;28;20197;-74
2023/11/09 02:42:53;;;;;;;4.88;1.90;;;1.60;65.40;;;;;;5092377;28;20212;-73
2023/11/09 02:45:22;;;;;;;2.83;1.75;;;1.50;65.60;;;;;;5092673;28;20197;-73
2023/11/09 02:47:50;;;;;;;3.28;1.92;;;1.60;66.30;;;;;;5092567;28;20220;-73
2023/11/09 02:50:17;;;;;;;3.75;1.95;;;1.60;66.30;;;;;;5092773;28;20277;-73
2023/11/09 02:52:48;;;;;;;3.28;2.00;;;1.60;66.80;;;;;;5094111;28;20719;-74
2023/11/09 02:55:20;;;;;;;3.85;2.05;;;1.60;67.10;;;;;;5096314;28;20184;-73
2023/11/09 02:57:50;;;;;;;2.95;1.58;;;1.60;67.50;;;;;;5095562;28;20188;-73
2023/11/09 03:00:19;;;;;;;3.75;1.90;;;1.60;67.20;;;;;;5096488;28;20242;-73
2023/11/09 03:02:49;;;;;;;4.88;2.45;;;1.50;65.90;;;;;;5096212;28;20247;-73
2023/11/09 03:05:21;;;;;;;6.25;2.20;;;1.50;66.00;;;;;;5096163;28;20662;-74
2023/11/09 03:07:50;;;;;;;3.30;2.00;;;1.50;65.90;;;;;;5096907;28;20196;-73
2023/11/09 03:10:17;;;;;;;4.50;2.42;;;;;;;;;;5096959;28;20185;-73
2023/11/09 03:12:47;;;;;;;4.38;2.53;;;;;;;;;;5096104;28;20197;-74
2023/11/09 03:15:15;;;;;;;4.13;2.00;;;;;;;;;;5095829;28;20193;-73
2023/11/09 03:17:44;;;;;;;3.13;1.95;;;;;;;;;;5096356;28;20196;-73
2023/11/09 03:20:12;;;;;;;3.63;1.92;;;;;;;;;;5095897;28;20217;-74
2023/11/09 03:22:41;;;;;;;3.20;2.05;;;;;;;;;;5095952;28;20213;-73
2023/11/09 03:25:09;;;;;;;3.78;1.65;;;;;;;;;;5095640;28;20644;-73
2023/11/09 03:27:36;;;;;;;3.42;1.50;;;;;;;;;;5095142;28;20701;-74
2023/11/09 03:30:04;;;;;;;3.72;1.75;;;;;;;;;;5095845;28;20194;-74
2023/11/09 03:32:35;;;;;;;4.05;1.63;;;;;;;;;;5095426;28;20259;-73
2023/11/09 03:35:04;;;;;;;4.45;1.90;;;;;;;;;;5095565;28;20533;-73
2023/11/09 03:37:31;;;;;;;3.47;1.00;;;;;;;;;;5095698;28;20250;-73
2023/11/09 03:39:59;;;;;;;4.22;1.80;;;;;;;;;;5095759;28;20709;-73
2023/11/09 03:42:27;;;;;;;2.28;1.27;;;;;;;;;;5095329;28;20224;-73
2023/11/09 03:44:56;;;;;;;3.40;1.58;;;;;;;;;;5095727;28;20189;-73
2023/11/09 03:47:27;;;;;;;3.25;1.95;;;;;;;;;;5095509;28;20193;-73
2023/11/09 03:49:54;;;;;;;4.38;1.95;;;;;;;;;;5095323;28;20254;-73
2023/11/09 03:52:28;;;;;;;3.95;1.70;;;;;;;;;;5095295;28;20664;-73
2023/11/09 03:54:55;;;;;;;3.10;1.55;;;;;;;;;;5095513;28;20235;-73
2023/11/09 03:57:22;;;;;;;3.55;1.77;;;;;;;;;;5095016;28;20193;-73
2023/11/09 03:59:50;;;;;;;5.57;1.85;;;;;;;;;;5094892;28;20194;-73
2023/11/09 04:02:18;;;;;;;3.60;1.65;;;;;;;;;;5094577;28;20197;-73
2023/11/09 04:04:47;;;;;;;5.05;2.20;;;;;;;;;;5095001;28;20189;-73
2023/11/09 04:07:15;;;;;;;3.78;2.28;;;1.50;65.90;;;;;;5095333;28;20197;-73
2023/11/09 04:09:47;;;;;;;3.00;1.95;;;1.20;67.70;;;;;;5095570;28;20510;-73
2023/11/09 04:12:19;;;;;;;4.72;2.00;;;1.20;67.30;;;;;;5092917;28;20193;-73
2023/11/09 04:14:47;;;;;;;11.80;1.75;;;1.20;66.80;;;;;;5094877;28;20178;-73
2023/11/09 04:17:14;;;;;;;3.20;1.40;;;1.20;66.50;;;;;;5094701;28;20203;-74
2023/11/09 04:19:42;;;;;;;3.30;1.60;;;1.30;66.00;;;;;;5094888;28;20201;-73
2023/11/09 04:22:11;;;;;;;3.38;1.88;;;1.30;65.80;;;;;;5095152;28;20180;-73
2023/11/09 04:24:38;;;;;;;3.25;1.63;;;1.20;65.80;;;;;;5094852;28;20266;-73
2023/11/09 04:27:08;;;;;;;3.72;1.75;;;1.20;65.80;;;;;;5094684;28;20282;-74
2023/11/09 04:29:37;;;;;;;4.03;2.50;;;1.20;66.40;;;;;;5093859;28;20189;-73
2023/11/09 04:32:08;;;;;;;5.47;2.58;;;1.20;66.60;;;;;;5094362;28;20197;-73
2023/11/09 04:34:36;;;;;;;4.80;1.90;;;1.30;66.40;;;;;;5094588;28;20181;-73
2023/11/09 04:37:11;;;;;;;3.25;1.85;;;1.20;65.40;;;;;;5094326;28;20190;-73
2023/11/09 04:39:41;;;;;;;3.22;1.80;;;1.30;65.70;;;;;;5094641;28;20182;-74
2023/11/09 04:42:18;;;;;;;5.60;2.10;;;1.20;64.80;;;;;;5094227;28;20193;-73
2023/11/09 04:44:46;;;;;;;6.90;2.08;;;1.20;64.90;;;;;;5094631;28;20544;-73
2023/11/09 04:47:21;;;;;;;3.58;1.70;;;1.20;65.40;;;;;;5094233;28;20185;-73
2023/11/09 04:49:58;;;;;;;3.42;1.85;;;1.20;66.30;;;;;;5094252;28;20178;-73
2023/11/09 04:52:26;;;;;;;3.58;2.03;;;1.20;67.20;;;;;;5094149;28;20178;-73
2023/11/09 04:55:10;;;;;;;6.00;4.97;;;1.20;67.00;;;;;;5094034;28;20269;-73
2023/11/09 05:08:42;;;;;;;3.95;2.83;;;1.10;68.70;;;;;;5073698;28;20212;-73
2023/11/09 05:11:13;;;;;;;4.45;2.65;;;1.00;69.50;;;;;;5079328;28;20264;-73
2023/11/09 05:13:41;;;;;;;3.80;2.10;;;1.00;70.10;;;;;;5092741;28;20181;-73
2023/11/09 05:16:13;;;;;;;4.15;2.45;;;1.00;69.50;;;;;;5093209;28;20193;-73
2023/11/09 05:18:43;;;;;;;3.50;1.70;;;1.00;69.20;;;;;;5093178;28;20207;-73
2023/11/09 05:21:10;;;;;;;2.78;1.48;;;0.90;69.90;;;;;;5093586;28;20213;-73
2023/11/09 05:23:37;;;;;;;2.80;1.48;;;0.90;70.80;;;;;;5093644;28;20294;-74
2023/11/09 05:26:05;;;;;;;3.15;1.40;;;1.00;71.20;;;;;;5092195;28;20201;-73
2023/11/09 05:28:34;;;;;;;2.90;1.40;;;1.00;71.40;;;;;;5093576;28;20205;-73
2023/11/09 05:31:03;;;;;;;2.80;1.40;;;1.00;71.70;;;;;;5093706;28;20194;-73
2023/11/09 05:33:33;;;;;;;3.35;1.40;;;1.00;71.60;;;;;;5093252;28;20190;-73
2023/11/09 05:36:07;;;;;;;2.80;1.30;;;1.00;71.40;;;;;;5093200;28;20242;-73
2023/11/09 05:38:40;;;;;;;4.43;1.27;;;1.10;71.50;;;;;;5093873;28;20177;-73
2023/11/09 05:41:14;;;;;;;3.65;1.73;;;1.10;71.20;;;;;;5093432;28;20216;-73
2023/11/09 05:43:41;;;;;;;2.50;1.73;;;1.00;71.20;;;;;;5093531;28;20288;-73
2023/11/09 05:46:12;;;;;;;4.00;1.95;;;1.00;71.40;;;;;;5091397;28;20197;-73
2023/11/09 05:48:39;;;;;;;3.28;2.05;;;1.00;71.30;;;;;;5092459;28;20197;-73
2023/11/09 05:51:10;;;;;;;9.73;1.73;;;1.00;71.30;;;;;;5092442;28;20189;-73
2023/11/09 05:53:37;;;;;;;2.97;1.50;;;1.00;71.20;;;;;;5091347;28;20205;-73
2023/11/09 05:56:07;;;;;;;3.67;2.08;;;1.10;71.20;;;;;;5092391;28;20519;-73
2023/11/09 05:58:34;;;;;;;2.78;1.90;;;1.10;71.20;;;;;;5057028;28;20221;-75
2023/11/09 06:01:05;;;;;;;3.30;1.85;;;1.10;71.10;;;;;;5084135;28;20741;-74
2023/11/09 06:03:34;;;;;;;3.38;1.85;;;1.20;71.20;;;;;;5084853;28;20237;-74
2023/11/09 06:06:01;;;;;;;2.60;1.45;;;1.20;71.20;;;;;;5086864;28;20398;-73
2023/11/09 06:08:34;;;;;;;4.60;1.45;;;1.30;71.30;;;;;;5086851;28;20201;-74
2023/11/09 06:11:05;;;;;;;3.38;1.98;;;1.30;71.00;;;;;;5087264;28;20885;-73
2023/11/09 06:13:32;;;;;;;5.70;2.85;;;1.30;69.60;;;;;;5088348;28;20197;-75
2023/11/09 06:16:02;;;;;;;3.67;1.67;;;1.30;68.90;;;;;;5086622;28;20193;-74
2023/11/09 06:18:33;;;;;;;4.85;2.30;;;1.20;68.10;;;;;;5087844;28;20197;-74
2023/11/09 06:21:01;;;;;;;3.20;2.10;;;1.20;68.40;;;;;;5087627;28;20217;-74
2023/11/09 06:23:29;;;;;;;4.72;2.30;;;1.20;69.00;;;;;;5090289;28;20213;-74
2023/11/09 06:25:58;;;;;;;5.00;3.22;;;1.30;69.60;;;;;;5091194;28;20564;-73
2023/11/09 06:28:25;;;;;;;8.05;3.97;;;1.30;69.80;;;;;;5088802;28;20197;-75
2023/11/09 06:30:53;;;;;;;6.97;4.50;;;1.40;69.70;;;;;;5069901;28;20198;-74
2023/11/09 06:33:20;;;;;;;7.82;4.32;;;1.50;68.50;;;;;;5070955;28;20313;-73
2023/11/09 06:35:50;;;;;;;5.53;3.17;;;1.60;68.30;;;;;;5071195;28;20331;-73
2023/11/09 06:38:19;;;;;;;6.28;4.13;;;1.70;67.70;;;;;;5076655;28;20186;-74
2023/11/09 06:40:47;;;;;;;5.30;3.10;;;1.80;66.60;;;;;;5090526;28;20201;-74
2023/11/09 06:43:20;;;;;;;5.28;2.78;;;1.80;65.20;;;;;;5091378;28;20221;-74
2023/11/09 06:45:47;;;;;;;4.82;3.10;;;1.90;65.60;;;;;;5090505;28;20617;-74
2023/11/09 06:48:15;;;;;;;4.53;2.50;;;1.90;65.80;;;;;;5090925;28;20186;-74
2023/11/09 06:50:43;;;;;;;4.50;2.22;;;1.90;65.80;;;;;;5091044;28;20193;-73
2023/11/09 06:53:17;;;;;;;5.30;3.22;;;2.00;66.20;;;;;;5090760;28;20632;-74
2023/11/09 06:55:45;;;;;;;6.15;4.75;;;2.00;65.70;;;;;;5090848;28;20181;-75
2023/11/09 06:58:13;;;;;;;8.20;5.43;;;2.00;66.20;;;;;;5091210;28;20189;-74
2023/11/09 07:00:41;;;;;;;7.82;5.53;;;2.10;66.70;;;;;;5090518;28;20190;-75
2023/11/09 07:03:08;;;;;;;9.23;6.15;;;2.10;66.90;;;;;;5091074;28;20189;-74
2023/11/09 07:05:35;;;;;;;11.27;4.78;;;2.30;66.90;;;;;;5091251;28;20197;-74
2023/11/09 07:08:02;;;;;;;5.38;3.08;;;2.40;66.90;;;;;;5090373;28;20211;-73
2023/11/09 07:10:33;;;;;;;8.15;4.22;;;2.60;66.80;;;;;;5078553;28;20233;-73
2023/11/09 07:13:00;;;;;;;6.88;3.90;;;2.70;66.10;;;;;;5070898;28;20190;-73
2023/11/09 07:15:28;;;;;;;5.43;3.20;;;2.80;66.00;;;;;;5071377;28;20320;-74
2023/11/09 07:17:55;;;;;;;4.00;3.08;;;3.00;65.10;;;;;;5086423;28;20190;-74
2023/11/09 07:20:22;;;;;;;7.80;2.90;;;;;;;;;;5090182;28;20245;-74
2023/11/09 07:22:56;;;;;;;3.97;2.78;;;;;;;;;;5091518;28;20216;-74
2023/11/09 07:25:23;;;;;;;5.30;2.80;;;;;;;;;;5089847;28;20201;-74
2023/11/09 07:27:52;;;;;;;5.70;3.40;;;;;;;;;;5091438;28;20189;-74
2023/11/09 07:30:20;;;;;;;6.35;3.10;;;;;;;;;;5090328;28;20736;-74
2023/11/09 07:32:47;;;;;;;4.55;3.45;;;;;;;;;;5091107;28;20551;-74
2023/11/09 07:35:15;;;;;;;5.50;3.55;;;;;;;;;;5090923;28;20196;-75
2023/11/09 07:37:42;;;;;;;4.07;3.28;;;;;;;;;;5092713;28;20201;-74
2023/11/09 07:40:10;;;;;;;5.93;3.80;;;;;;;;;;5094678;28;20239;-74
2023/11/09 07:42:37;;;;;;;4.50;2.85;;;;;;;;;;5094968;28;20193;-74
2023/11/09 07:45:10;;;;;;;4.25;2.67;;;;;;;;;;5092587;28;20308;-74
2023/11/09 07:47:37;;;;;;;5.72;3.40;;;;;;;;;;5094400;28;20188;-75
2023/11/09 07:50:09;;;;;;;13.52;7.20;;;;;;;;;;5088460;28;20224;-75
2023/11/09 07:52:36;;;;;;;14.50;7.45;;;;;;;;;;5089524;28;20180;-74
2023/11/09 07:55:07;;;;;;;12.43;6.50;;;;;;;;;;5093221;28;20517;-75
2023/11/09 07:57:34;;;;;;;8.70;5.50;;;;;;;;;;5093085;28;20612;-75
2023/11/09 08:00:04;;;;;;;10.82;6.22;;;;;;;;;;5092628;28;20194;-75
2023/11/09 08:02:33;;;;;;;7.35;4.40;;;;;;;;;;5094674;28;20214;-74
2023/11/09 08:05:01;;;;;;;9.02;5.15;;;;;;;;;;5094106;28;20202;-76
2023/11/09 08:07:28;;;;;;;8.70;4.80;;;;;;;;;;5094193;28;20194;-75
2023/11/09 08:09:55;;;;;;;5.30;4.22;;;;;;;;;;5093885;28;20639;-75
2023/11/09 08:12:23;;;;;;;5.82;3.85;;;;;;;;;;5093956;28;20398;-75
2023/11/09 08:14:50;;;;;;;6.53;3.60;;;;;;;;;;5093412;28;20577;-75
2023/11/09 08:17:20;;;;;;;6.70;3.88;;;;;;;;;;5093214;28;20204;-75
2023/11/09 08:19:49;;;;;;;4.80;3.25;;;;;;;;;;5092678;28;20182;-75
2023/11/09 08:22:19;;;;;;;5.72;3.63;;;;;;;;;;5094327;28;20185;-75
2023/11/09 08:24:46;;;;;;;5.45;3.25;;;;;;;;;;5091088;28;20190;-76
2023/11/09 08:27:14;;;;;;;8.77;5.63;;;;;;;;;;5094007;28;20190;-75
2023/11/09 08:29:42;;;;;;;12.98;7.57;;;;;;;;;;5093861;28;20211;-76
2023/11/09 08:32:10;;;;;;;6.50;3.38;;;;;;;;;;5094213;28;20196;-75
2023/11/09 08:34:40;;;;;;;6.45;2.90;;;;;;;;;;5093853;28;20200;-75
2023/11/09 08:37:10;;;;;;;5.90;3.35;;;;;;;;;;5093683;28;20174;-75
2023/11/09 08:39:38;;;;;;;5.32;3.42;;;;;;;;;;5093859;28;20197;-75
2023/11/09 08:42:06;;;;;;;4.60;3.20;;;;;;;;;;5093639;28;20205;-75
2023/11/09 08:44:35;;;;;;;5.68;3.05;;;;;;;;;;5093642;28;20698;-75
2023/11/09 08:47:03;;;;;;;4.30;2.70;;;;;;;;;;5093811;28;20194;-75
2023/11/09 08:49:30;;;;;;;4.20;2.30;;;3.10;64.50;;;;;;5094284;28;20496;-75
2023/11/09 08:52:04;;;;;;;5.10;2.53;;;14.80;35.90;;;;;;5094119;28;20756;-76
2023/11/09 08:54:32;;;;;;;4.23;2.53;;;15.30;34.70;;;;;;5093742;28;20832;-75
2023/11/09 08:56:59;;;;;;;3.60;2.00;;;16.00;33.60;;;;;;5093815;28;20470;-76
2023/11/09 08:59:27;;;;;;;3.60;2.30;;;16.30;33.50;;;;;;5093574;28;20431;-76
2023/11/09 09:01:54;;;;;;;2.53;1.70;;;16.60;34.30;;;;;;5093697;28;20431;-76
2023/11/09 09:04:24;;;;;;;3.20;1.30;;;16.90;31.90;;;;;;5093311;28;20498;-76
2023/11/09 09:06:52;;;;;;;2.30;1.37;;;17.00;28.60;;;;;;5093955;28;20432;-76
2023/11/09 09:09:20;;;;;;;2.90;1.30;;;17.10;29.80;;;;;;5093551;28;20436;-76
2023/11/09 09:11:51;;;;;;;3.20;2.17;;;17.20;29.70;;;;;;5093271;28;20443;-76
2023/11/09 09:14:18;;;;;;;3.73;2.30;;;17.40;29.50;;;;;;5093579;28;21031;-76
2023/11/09 09:16:45;;;;;;;3.60;1.80;;;17.80;30.20;;;;;;5093441;28;20489;-76
2023/11/09 09:19:13;;;;;;;2.90;1.70;;;18.10;29.90;;;;;;5093289;28;20501;-76
2023/11/09 09:21:40;;;;;;;4.40;1.90;;;18.40;29.40;;;;;;5092973;28;20459;-76
2023/11/09 09:24:08;;;;;;;5.33;2.17;;;18.60;27.50;;;;;;5093605;28;20428;-76
2023/11/09 09:26:36;;;;;;;3.80;1.67;;;18.80;27.00;;;;;;5093418;28;20467;-76
2023/11/09 09:29:06;;;;;;;3.37;1.70;;;19.00;27.20;;;;;;5093145;28;20522;-77
2023/11/09 09:31:33;;;;;;;7.00;1.90;;;19.30;26.90;;;;;;5092877;28;20420;-77
2023/11/09 09:34:07;;;;;;;3.30;1.90;;;19.60;26.20;;;;;;5092887;28;20432;-76
2023/11/09 09:36:34;;;;;;;4.00;1.57;;;19.70;25.40;;;;;;5092926;28;20420;-76
2023/11/09 09:39:03;;;;;;;2.73;1.50;;;19.70;26.40;;;;;;5092863;28;20435;-76
2023/11/09 09:41:37;;;;;;;2.80;1.30;;;19.80;25.80;;;;;;5093078;28;20440;-77
2023/11/09 09:44:08;;;;;;;6.83;1.93;;;19.90;24.50;;;;;;5092930;28;20870;-76
2023/11/09 09:46:39;;;;;;;4.00;1.37;;;19.80;24.50;;;;;;5092914;28;20423;-76
2023/11/09 09:49:08;;;;;;;2.83;1.40;;;19.30;24.40;;;;;;5093094;28;20450;-76
2023/11/09 09:51:37;;;;;;;2.50;1.20;;;19.10;24.70;;;;;;5093255;28;20515;-76
2023/11/09 09:54:08;;;;;;;2.50;1.30;;;19.30;26.00;;;;;;5092667;28;20427;-76
2023/11/09 09:56:39;;;;;;;10.80;2.17;;;19.80;27.10;;;;;;5093083;28;20427;-76
2023/11/09 09:59:09;;;;;;;3.93;1.90;;;20.10;26.00;;;;;;5092337;28;20838;-76
2023/11/09 10:01:42;;;;;;;3.93;1.37;;;19.90;25.40;;;;;;5092354;28;20439;-76
2023/11/09 10:04:11;;;;;;;2.67;1.60;;;19.60;25.20;;;;;;5092570;28;20752;-76
2023/11/09 10:06:38;;;;;;;4.20;1.60;;;19.20;24.80;;;;;;5092403;28;20890;-76
2023/11/09 10:09:07;;;;;;;2.73;1.50;;;18.80;25.00;;;;;;5092273;28;20484;-76
2023/11/09 10:11:37;;;;;;;5.57;2.20;;;18.40;25.20;;;;;;5093069;28;20729;-76
2023/11/09 10:14:06;;;;;;;3.00;1.30;;;17.90;26.40;;;;;;5092240;28;20518;-76
2023/11/09 10:16:34;;;;;;;2.53;1.43;;;17.60;25.80;;;;;;5092595;28;20763;-76
2023/11/09 10:19:02;;;;;;;2.13;1.03;;;17.50;25.80;;;;;;5092334;28;20485;-76
2023/11/09 10:21:30;;;;;;;2.80;1.50;;;17.50;26.10;;;;;;5092076;28;20463;-76
2023/11/09 10:23:59;;;;;;;2.67;1.40;;;17.70;26.70;;;;;;5091907;28;20427;-76
2023/11/09 10:26:39;;;;;;;2.50;1.00;;;17.80;27.00;;;;;;5092736;28;20471;-76
2023/11/09 10:29:07;;;;;;;2.77;1.63;;;18.20;27.30;;;;;;5093006;28;20966;-76
2023/11/09 10:31:38;;;;;;;4.47;2.50;;;18.90;27.50;;;;;;5093045;28;20435;-76
2023/11/09 10:34:10;;;;;;;4.20;1.87;;;19.80;25.80;;;;;;5093120;28;20428;-76
2023/11/09 10:36:39;;;;;;;5.03;2.50;;;20.80;24.50;;;;;;5093176;28;20836;-76
2023/11/09 10:39:16;;;;;;;5.83;2.20;;;21.70;23.90;;;;;;5092812;28;20960;-76
2023/11/09 10:41:47;;;;;;;3.77;1.70;;;22.80;23.60;;;;;;5092905;28;20930;-77
2023/11/09 10:44:18;;;;;;;4.03;1.60;;;23.90;22.20;;;;;;5092700;28;20428;-77
2023/11/09 10:46:47;;;;;;;2.90;1.57;;;24.70;21.50;;;;;;5093058;28;20451;-77
2023/11/09 10:49:17;;;;;;;7.70;1.23;;;25.50;21.50;;;;;;5093057;28;20508;-77
2023/11/09 10:51:47;;;;;;;2.50;1.07;;;26.00;20.70;;;;;;5093056;28;20498;-77
2023/11/09 10:54:16;;;;;;;2.80;1.10;;;25.80;19.70;;;;;;5093193;28;20412;-76
2023/11/09 10:56:44;;;;;;;3.47;1.27;;;25.30;19.00;;;;;;5092719;28;20526;-77
2023/11/09 10:59:11;;;;;;;2.67;1.43;;;24.20;20.00;;;;;;5092975;28;20477;-76
2023/11/09 11:01:42;;;;;;;2.80;1.23;;;23.00;20.20;;;;;;5092876;28;20859;-76
2023/11/09 11:04:12;;;;;;;2.80;1.10;;;22.00;22.20;;;;;;5093048;28;20505;-76
2023/11/09 11:06:50;;;;;;;2.20;1.00;;;21.10;23.40;;;;;;5093224;28;20556;-75
2023/11/09 11:09:25;;;;;;;3.50;1.00;;;20.40;24.20;;;;;;5092670;28;20469;-76
2023/11/09 11:11:58;;;;;;;4.20;1.20;;;19.90;24.60;;;;;;5094365;28;20923;-75
2023/11/09 11:14:27;;;;;;;4.10;1.47;;;19.80;24.70;;;;;;5096731;28;20905;-75
2023/11/09 11:17:28;;;;;;;2.53;1.07;;;20.30;25.40;;;;;;5096349;28;20493;-75
2023/11/09 11:20:18;;;;;;;3.90;1.10;;;20.60;25.10;;;;;;5096458;28;20434;-75
2023/11/09 11:22:56;;;;;;;2.87;1.27;;;20.60;23.90;;;;;;5096270;28;20909;-75
2023/11/09 11:25:34;;;;;;;3.97;1.27;;;20.80;23.40;;;;;;5096806;28;20635;-75
2023/11/09 11:28:03;;;;;;;3.03;1.23;;;20.90;23.00;;;;;;5096283;28;20766;-76
2023/11/09 11:30:33;;;;;;;2.57;1.23;;;20.80;23.20;;;;;;5096555;28;20435;-76
2023/11/09 11:33:04;;;;;;;2.63;1.07;;;20.60;22.80;;;;;;5096219;28;20789;-75
2023/11/09 11:35:42;;;;;;;3.10;1.10;;;20.30;22.70;;;;;;5096433;28;20451;-75
2023/11/09 11:38:29;;;;;;;2.77;1.13;;;20.00;22.90;;;;;;5096067;28;20426;-75
2023/11/09 11:41:01;;;;;;;4.30;1.30;;;19.60;23.30;;;;;;5096327;28;20435;-75
2023/11/09 11:43:50;;;;;;;2.77;1.43;;;19.30;23.20;;;;;;5096001;28;20518;-75
2023/11/09 11:46:18;;;;;;;2.87;1.37;;;19.10;23.90;;;;;;5095790;28;20467;-75
2023/11/09 11:48:50;;;;;;;3.90;1.00;;;19.10;24.10;;;;;;5096202;28;20815;-76
2023/11/09 11:51:19;;;;;;;3.03;1.20;;;19.70;24.40;;;;;;5096196;28;20506;-75
2023/11/09 11:53:52;;;;;;;3.10;1.20;;;20.40;23.60;;;;;;5096143;28;20436;-75
2023/11/09 11:56:31;;;;;;;4.17;1.70;;;20.30;23.00;;;;;;5096053;28;20424;-76
2023/11/09 11:59:00;;;;;;;2.90;1.57;;;20.20;22.60;;;;;;5095597;28;20477;-75
2023/11/09 12:01:29;;;;;;;5.17;1.60;;;20.60;23.00;;;;;;5095900;28;20439;-76
2023/11/09 12:03:58;;;;;;;4.33;2.23;;;20.70;22.40;;;;;;5095984;28;20431;-75
2023/11/09 12:06:28;;;;;;;2.33;1.10;;;20.30;23.00;;;;;;5095811;28;20475;-75
2023/11/09 12:08:59;;;;;;;2.47;1.00;;;20.00;23.20;;;;;;5095429;28;20457;-76
2023/11/09 12:11:33;;;;;;;4.37;1.53;;;20.00;23.40;;;;;;5095686;28;20455;-75
2023/11/09 12:14:01;;;;;;;2.93;1.03;;;20.40;22.80;;;;;;5095866;28;20424;-75
2023/11/09 12:16:29;;;;;;;4.63;1.40;;;20.50;22.50;;;;;;5095656;28;20523;-75
2023/11/09 12:18:57;;;;;;;2.40;1.00;;;20.30;22.70;;;;;;5095287;28;20482;-75
2023/11/09 12:21:27;;;;;;;2.80;1.23;;;19.80;23.00;;;;;;5094963;28;20468;-75
2023/11/09 12:23:56;;;;;;;4.07;1.60;;;19.30;23.60;;;;;;5094730;28;20471;-75
2023/11/09 12:26:24;;;;;;;3.77;1.03;;;18.90;24.30;;;;;;5094895;28;20521;-75
2023/11/09 12:28:55;;;;;;;5.40;1.40;;;18.40;24.70;;;;;;5095007;28;20436;-75
2023/11/09 12:31:28;;;;;;;2.63;1.30;;;18.00;25.10;;;;;;5095693;28;20416;-75
2023/11/09 12:34:04;;;;;;;2.67;1.13;;;17.60;25.80;;;;;;5095257;28;20452;-75
2023/11/09 12:36:34;;;;;;;3.40;1.67;;;17.20;26.10;;;;;;5095243;28;20514;-75
2023/11/09 12:39:05;;;;;;;3.27;1.80;;;16.90;26.40;;;;;;5094809;28;20960;-75
2023/11/09 12:41:33;;;;;;;3.50;1.20;;;16.50;27.00;;;;;;5095052;28;20455;-76
2023/11/09 12:44:02;;;;;;;3.47;1.20;;;16.20;27.50;;;;;;5094796;28;20432;-75
2023/11/09 12:46:33;;;;;;;3.10;1.40;;;15.90;28.00;;;;;;5094810;28;20526;-75
2023/11/09 12:49:07;;;;;;;3.10;1.50;;;15.70;28.70;;;;;;5094575;28;20430;-75
2023/11/09 12:51:38;;;;;;;4.70;1.10;;;15.50;29.50;;;;;;5094910;28;20485;-74
2023/11/09 12:54:05;;;;;;;2.97;1.50;;;15.30;29.70;;;;;;5094864;28;20443;-74
2023/11/09 12:56:33;;;;;;;2.97;1.43;;;15.20;29.80;;;;;;5094766;28;20462;-74
2023/11/09 12:59:04;;;;;;;2.50;1.00;;;15.00;29.10;;;;;;5094658;28;20819;-74
2023/11/09 13:01:31;;;;;;;2.60;1.17;;;15.00;29.20;;;;;;5094726;28;20477;-74
2023/11/09 13:03:58;;;;;;;4.33;1.73;;;15.00;29.30;;;;;;5094807;28;20454;-74
2023/11/09 13:06:26;;;;;;;3.57;1.30;;;14.90;29.80;;;;;;5094688;28;20475;-75
2023/11/09 13:09:05;;;;;;;2.47;1.10;;;14.80;29.90;;;;;;5094189;28;20514;-74
2023/11/09 13:11:41;;;;;;;3.63;1.20;;;14.70;29.70;;;;;;5094551;28;20416;-75
2023/11/09 13:14:15;;;;;;;5.80;1.10;;;14.60;29.80;;;;;;5094234;28;20453;-74
2023/11/09 13:16:43;;;;;;;3.00;1.70;;;14.60;30.80;;;;;;5094258;28;20435;-74
2023/11/09 13:19:11;;;;;;;2.37;0.90;;;14.50;30.50;;;;;;5094571;28;20435;-75
2023/11/09 13:21:38;;;;;;;3.13;1.37;;;14.50;29.70;;;;;;5094372;28;20822;-74
2023/11/09 13:24:08;;;;;;;2.70;0.90;;;14.50;31.10;;;;;;5094213;28;20520;-75
2023/11/09 13:26:37;;;;;;;2.77;1.30;;;14.50;30.90;;;;;;5094217;28;20557;-74
2023/11/09 13:29:10;;;;;;;3.00;1.10;;;14.50;31.40;;;;;;5093816;28;20467;-75
2023/11/09 13:31:39;;;;;;;4.03;1.10;;;14.70;32.10;;;;;;5094322;28;20511;-74
2023/11/09 13:34:07;;;;;;;2.80;1.10;;;15.00;32.00;;;;;;5094022;28;20807;-74
2023/11/09 13:36:43;;;;;;;3.17;1.20;;;15.30;30.50;;;;;;5093119;28;20941;-75
2023/11/09 13:39:33;;;;;;;2.10;0.87;;;15.50;28.00;;;;;;5093835;28;20909;-74
2023/11/09 13:42:09;;;;;;;2.10;0.90;;;15.40;28.20;;;;;;5093695;28;20420;-74